Tiempo atmosférico en la estación meteorológica de Córdoba, Córdoba (525 m.)



Fecha
DESCASC
Temp. máxima en grados centígrados (hora)
DESCASC
Temp. mínima en grados centígrados (hora)
DESCASC
Temp. media en grados centígrados
DESCASC
Racha de viento máxima en m/sg (hora)
DESCASC
Velocidad máxima media en intervalos de 10 minutos(hora)
DESCASC
Precipitaciones diarias en mm
DESCASC
Precipitaciones de 00:00 a 06:00 en mm
DESCASC
Precipitaciones de 06:00 a 12:00 en mm
DESCASC
Precipitaciones de 12:00 a 18:00 en mm
DESCASC
Precipitaciones de 18:00 a 24:00 en mm
DESCASC

Gráficas

Temp. máximas Temp. mínimas Temp. medias Precipitaciones Rachas de viento máximas Velocidades máximas media en intervalos de 10 minutos

Datos horarios

Fecha y hora oficial Temperatura (ºC) Velocidad del viento (km/h) Dirección del viento Racha (km/h) Dirección de racha Precipitación (mm) Presión (hPa) Tendencia (hPa) Humedad (%)
2020-01-25 23:00:00 8 0 Calma 6 Oeste 0 -- -- 97
2020-01-25 22:00:00 8 0 Calma 9 Sudoeste 0 -- -- 97
2020-01-25 21:00:00 8 5 Sudoeste 9 Sudoeste 0.2 -- -- 97
2020-01-25 20:00:00 8 3 Sudoeste 9 Oeste 0.4 -- -- 97
2020-01-25 19:00:00 8.1 4 Oeste 7 Oeste 0.6 -- -- 97
2020-01-25 18:00:00 8.1 3 Sudoeste 6 Sudoeste 0.8 -- -- 95
2020-01-25 17:00:00 8.3 3 Oeste 13 Sudoeste 0.4 -- -- 94
2020-01-25 16:00:00 8.8 8 Sudoeste 20 Sudoeste 0 -- -- 89
2020-01-25 15:00:00 8.9 8 Sudoeste 27 Sudoeste 0.2 -- -- 90
2020-01-25 14:00:00 7.6 17 Sudoeste 31 Sudoeste 0.6 -- -- 94
2020-01-25 13:00:00 8.2 8 Sur 21 Sudoeste 0.2 -- -- 94
2020-01-25 12:00:00 8.1 4 Sur 9 Sudeste 0.8 -- -- 97
2020-01-25 11:00:00 7.7 3 Sur 17 Sudeste 2.2 -- -- 98
2020-01-25 10:00:00 7.5 6 Este 13 Sudeste 0.6 -- -- 97
2020-01-25 09:00:00 7.4 4 Este 10 Este 0.4 -- -- 97
2020-01-25 08:00:00 7.4 4 Sudoeste 19 Sudoeste 1.8 -- -- 97
2020-01-25 07:00:00 7.5 7 Sudoeste 14 Sudoeste 3.2 -- -- 96
2020-01-25 06:00:00 7.6 2 Nordeste 9 Sudeste 0 -- -- 95
2020-01-25 05:00:00 7.8 3 Sur 10 Sur 0.2 -- -- 94
2020-01-25 04:00:00 8 0 Calma 7 Este 0 -- -- 96
2020-01-25 03:00:00 8.1 3 Sudeste 11 Sur 0 -- -- 95
2020-01-25 02:00:00 8.2 5 Sur 19 Sur 0 -- -- 96
2020-01-25 01:00:00 8.2 10 Sur 28 Sudoeste 0.4 -- -- 95
2020-01-25 00:00:00 8.2 8 Sudeste 18 Sudeste 1 -- -- 94
2020-01-24 23:00:00 8.2 6 Sudeste 15 Sudeste 2.6 -- -- 94
2020-01-24 22:00:00 8.4 4 Sudeste 10 Sudeste 0.8 -- -- 95
2020-01-24 21:00:00 8.6 0 Calma 8 Sur 2 -- -- 95
2020-01-24 20:00:00 8.9 0 Calma 6 Sudeste 0.4 -- -- 93
2020-01-24 19:00:00 9.2 3 Sur 11 Sudoeste 0.4 -- -- 90
2020-01-24 18:00:00 10.4 3 Este 7 Este 0 -- -- 80
2020-01-24 17:00:00 11.2 2 Este 10 Este 0 -- -- 75
2020-01-24 16:00:00 11.5 4 Este 12 Este 0 -- -- 74
2020-01-24 15:00:00 11.8 6 Este 13 Este 0 -- -- 72
2020-01-24 14:00:00 10.9 6 Este 14 Este 0 -- -- 75
2020-01-24 13:00:00 11.6 6 Este 15 Sudeste 0 -- -- 73
2020-01-24 12:00:00 10.3 6 Este 17 Este 0 -- -- 81
2020-01-24 11:00:00 8.2 5 Este 13 Este 0 -- -- 92
2020-01-24 10:00:00 7.6 5 Este 12 Nordeste 0 -- -- 95
2020-01-24 09:00:00 6.4 3 Nordeste 6 Este 0 -- -- 96
2020-01-24 08:00:00 6.6 3 Nordeste 8 Nordeste 0 -- -- 96
2020-01-24 07:00:00 6.5 0 Calma 4 Nordeste 0 -- -- 96
2020-01-24 06:00:00 6.6 0 Calma 5 Nordeste 0 -- -- 96
2020-01-24 05:00:00 6.6 0 Calma 14 Sur 0 -- -- 95
2020-01-24 04:00:00 6.8 7 Sudoeste 25 Sur 0 -- -- 95
2020-01-24 03:00:00 7.1 5 Sur 20 Sudeste 0 -- -- 94
2020-01-24 02:00:00 7.2 12 Sur 22 Sudoeste 0.8 -- -- 96
2020-01-24 01:00:00 7.4 7 Sur 16 Sur 1.6 -- -- 97
2020-01-24 00:00:00 7.2 2 Sudoeste 3 Sudoeste 1 -- -- 97
2020-01-23 23:00:00 7.2 0 Calma 9 Sudoeste 2 -- -- 96
2020-01-23 22:00:00 7.4 3 Oeste 5 Sudoeste 2 -- -- 96
2020-01-23 21:00:00 7.4 0 Calma 7 Oeste 0.4 -- -- 94
2020-01-23 20:00:00 7.7 4 Sudeste 10 Sudeste 0 -- -- 90
2020-01-23 19:00:00 7.7 3 Sudeste 13 Sudeste 0 -- -- 92
2020-01-23 18:00:00 8.1 5 Este 14 Este 0 -- -- 91
2020-01-23 17:00:00 8.3 6 Este 15 Este 0 -- -- 92
2020-01-23 16:00:00 8.2 4 Este 12 Este 0 -- -- 90
2020-01-23 15:00:00 8.4 4 Este 13 Este 0.4 -- -- 92
2020-01-23 14:00:00 8.5 6 Este 17 Este 0 -- -- 92
2020-01-23 13:00:00 8.2 5 Este 15 Este 0.4 -- -- 92
2020-01-23 12:00:00 7.3 7 Este 19 Este 0.8 -- -- 92
2020-01-23 11:00:00 7 4 Este 12 Nordeste 0 -- -- 93
2020-01-23 10:00:00 6.2 4 Este 10 Este 0.2 -- -- 95
2020-01-23 09:00:00 5.9 5 Este 13 Este 0 -- -- 96
2020-01-23 08:00:00 6.1 5 Este 10 Este 0.6 -- -- 94
2020-01-23 07:00:00 6.2 3 Este 9 Este 0.8 -- -- 94
2020-01-23 06:00:00 6.2 4 Nordeste 7 Nordeste 0.2 -- -- 93
2020-01-23 05:00:00 6.3 3 Este 9 Nordeste 0 -- -- 92
2020-01-23 04:00:00 6.2 4 Este 6 Este 0.4 -- -- 92
2020-01-23 03:00:00 6.3 0 Calma 10 Este 0 -- -- 91
2020-01-23 02:00:00 6.5 4 Este 6 Este 0.4 -- -- 91
2020-01-23 01:00:00 6.9 0 Calma 10 Este 0 -- -- 88
2020-01-23 00:00:00 7.3 5 Este 10 Este 0 -- -- 85
2020-01-22 23:00:00 7.6 3 Este 5 Este 0 -- -- 87
2020-01-22 22:00:00 7.9 3 Este 6 Este 0 -- -- 85
2020-01-22 21:00:00 8.3 0 Calma 9 Sur 0 -- -- 80
2020-01-22 20:00:00 8.6 4 Sur 8 Sur 0 -- -- 76
2020-01-22 19:00:00 9.1 0 Calma 6 Sudeste 0 -- -- 78
2020-01-22 18:00:00 10 0 Calma 9 Este 0 -- -- 73
2020-01-22 17:00:00 11 3 Sudeste 12 Este 0 -- -- 66
2020-01-22 16:00:00 10.9 6 Este 15 Este 0 -- -- 65
2020-01-22 15:00:00 10.5 5 Este 14 Este 0 -- -- 71
2020-01-22 14:00:00 10 6 Este 14 Este 0 -- -- 75
2020-01-22 13:00:00 8.9 5 Este 12 Este 0 -- -- 80
2020-01-22 12:00:00 7.6 3 Este 12 Este 0 -- -- 88
2020-01-22 11:00:00 6.8 6 Nordeste 12 Nordeste 0 -- -- 93
2020-01-22 10:00:00 5.7 2 Este 13 Este 1 -- -- 96
2020-01-22 09:00:00 5.3 3 Nordeste 10 Nordeste 1.4 -- -- 96
2020-01-22 08:00:00 5.3 3 Sudeste 10 Nordeste 0.6 -- -- 96
2020-01-22 07:00:00 5.2 4 Nordeste 9 Este 1.8 -- -- 96
2020-01-22 06:00:00 5.2 3 Nordeste 6 Este 1.2 -- -- 96
2020-01-22 05:00:00 5.2 0 Calma 9 Nordeste 0.6 -- -- 96
2020-01-22 04:00:00 5.2 5 Este 15 Este 0 -- -- 96
2020-01-22 03:00:00 5.2 4 Nordeste 14 Nordeste 0.8 -- -- 95
2020-01-22 02:00:00 5.2 5 Nordeste 14 Este 0.6 -- -- 94
2020-01-22 01:00:00 5.6 8 Nordeste 16 Este 0 -- -- 90
2020-01-22 00:00:00 5.9 5 Nordeste 14 Nordeste 0 -- -- 85
2020-01-21 23:00:00 5.4 8 Nordeste 14 Este 0 -- -- 85
2020-01-21 22:00:00 4.4 3 Nordeste 12 Nordeste 0 -- -- 89
2020-01-21 21:00:00 5.3 7 Nordeste 14 Norte 0 -- -- 86
2020-01-21 20:00:00 6.1 7 Nordeste 18 Nordeste 0 -- -- 84
2020-01-21 19:00:00 6.6 9 Nordeste 25 Nordeste 0 -- -- 82
2020-01-21 18:00:00 7.4 8 Nordeste 20 Nordeste 0 -- -- 74
2020-01-21 17:00:00 7.9 10 Norte 18 Norte 0 -- -- 70
2020-01-21 16:00:00 8.6 9 Nordeste 22 Nordeste 0 -- -- 70
2020-01-21 15:00:00 8.8 15 Nordeste 27 Nordeste 0 -- -- 63
2020-01-21 14:00:00 8.2 11 Nordeste 31 Nordeste 0 -- -- 71
2020-01-21 13:00:00 7.3 19 Nordeste 34 Nordeste 0 -- -- 72
2020-01-21 12:00:00 6.8 12 Nordeste 33 Nordeste 0 -- -- 72
2020-01-21 11:00:00 6.4 14 Nordeste 37 Nordeste 0 -- -- 72
2020-01-21 10:00:00 6.4 21 Nordeste 41 Nordeste 0 -- -- 71
2020-01-21 09:00:00 6 14 Nordeste 31 Norte 0 -- -- 71
2020-01-21 08:00:00 5.1 5 Norte 28 Nordeste 0 -- -- 75
2020-01-21 07:00:00 5 16 Norte 30 Norte 0 -- -- 74
2020-01-21 06:00:00 5.3 16 Nordeste 29 Nordeste 0 -- -- 73
2020-01-21 05:00:00 5.6 17 Nordeste 29 Norte 0 -- -- 73
2020-01-21 04:00:00 5.8 10 Nordeste 23 Nordeste 0 -- -- 74
2020-01-21 03:00:00 6.3 11 Nordeste 25 Nordeste 0 -- -- 70
2020-01-21 02:00:00 6.1 2 Nordeste 34 Nordeste 0 -- -- 71
2020-01-21 01:00:00 6.3 19 Nordeste 37 Este 0 -- -- 72
2020-01-21 00:00:00 6.2 17 Nordeste 30 Nordeste 0 -- -- 73
2020-01-20 23:00:00 6.3 13 Nordeste 29 Nordeste 0 -- -- 74
2020-01-20 22:00:00 6.9 15 Nordeste 39 Nordeste 0 -- -- 71
2020-01-20 21:00:00 7.3 19 Nordeste 40 Nordeste 0 -- -- 67
2020-01-20 20:00:00 7.1 19 Nordeste 41 Nordeste 0 -- -- 67
2020-01-20 19:00:00 6.9 19 Nordeste 36 Nordeste 0 -- -- 67
2020-01-20 18:00:00 7.4 18 Nordeste 48 Este 0 -- -- 65
2020-01-20 17:00:00 7.9 23 Nordeste 45 Nordeste 0 -- -- 60
2020-01-20 16:00:00 8.4 23 Nordeste 55 Nordeste 0 -- -- 58
2020-01-20 15:00:00 8.7 31 Nordeste 54 Nordeste 0 -- -- 52
2020-01-20 14:00:00 7.5 22 Nordeste 50 Este 0 -- -- 60
2020-01-20 13:00:00 6.1 23 Nordeste 53 Nordeste 0 -- -- 63
2020-01-20 12:00:00 5.3 26 Nordeste 51 Nordeste 0 -- -- 61
2020-01-20 11:00:00 4.6 20 Nordeste 40 Nordeste 0 -- -- 58
2020-01-20 10:00:00 3.5 15 Nordeste 40 Nordeste 0 -- -- 65
2020-01-20 09:00:00 2.9 16 Nordeste 35 Nordeste 0 -- -- 69
2020-01-20 08:00:00 3.3 17 Nordeste 37 Nordeste 0 -- -- 65
2020-01-20 07:00:00 3.8 22 Nordeste 50 Nordeste 0 -- -- 62
2020-01-20 06:00:00 4 18 Nordeste 40 Nordeste 0 -- -- 58
2020-01-20 05:00:00 4.4 22 Nordeste 42 Norte 0 -- -- 51
2020-01-20 04:00:00 4.5 12 Nordeste 36 Nordeste 0 -- -- 53
2020-01-20 03:00:00 4.4 19 Nordeste 40 Nordeste 0 -- -- 57
2020-01-20 02:00:00 4.2 16 Nordeste 35 Nordeste 0 -- -- 62
2020-01-20 01:00:00 4.2 20 Nordeste 45 Nordeste 0 -- -- 70
2020-01-20 00:00:00 4.7 23 Nordeste 41 Norte 0 -- -- 72
2020-01-19 23:00:00 4.9 21 Nordeste 48 Nordeste 0 -- -- 74
2020-01-19 22:00:00 4.8 17 Nordeste 45 Nordeste 0 -- -- 77
2020-01-19 21:00:00 5.4 20 Nordeste 43 Nordeste 0 -- -- 75
2020-01-19 20:00:00 5.7 24 Nordeste 43 Norte 0 -- -- 75
2020-01-19 19:00:00 6.4 20 Nordeste 53 Nordeste 0 -- -- 66
2020-01-19 18:00:00 8.4 24 Nordeste 49 Nordeste 0 -- -- 55
2020-01-19 17:00:00 8.6 20 Nordeste 40 Nordeste 0 -- -- 64
2020-01-19 16:00:00 8.5 18 Norte 34 Nordeste 0.2 -- -- 70
2020-01-19 15:00:00 8.2 18 Norte 47 Norte 0.2 -- -- 80
2020-01-19 14:00:00 9.6 13 Norte 35 Norte 0 -- -- 68
2020-01-19 13:00:00 9.2 17 Norte 33 Norte 0 -- -- 69
2020-01-19 12:00:00 8.2 11 Norte 33 Norte 0 -- -- 77
2020-01-19 11:00:00 8.8 15 Norte 30 Norte 0 -- -- 77
2020-01-19 10:00:00 7.2 12 Norte 29 Norte 0 -- -- 84
2020-01-19 09:00:00 6.5 4 Norte 24 Norte 0 -- -- 86
2020-01-19 08:00:00 6.5 8 Norte 23 Nordeste 0 -- -- 88
2020-01-19 07:00:00 6 4 Norte 16 Noroeste 0 -- -- 90
2020-01-19 06:00:00 6 2 Oeste 13 Oeste 0 -- -- 90
2020-01-19 05:00:00 7.1 5 Norte 28 Noroeste 0 -- -- 88
2020-01-19 04:00:00 7.9 6 Oeste 18 Noroeste 0 -- -- 87
2020-01-19 03:00:00 7.9 5 Sudoeste 18 Sudoeste 0 -- -- 87
2020-01-19 02:00:00 8.1 6 Oeste 20 Oeste 0 -- -- 79
2020-01-19 01:00:00 9.4 11 Oeste 28 Oeste 0 -- -- 82
2020-01-19 00:00:00 9.8 7 Oeste 26 Oeste 0 -- -- 92
2020-01-18 23:00:00 9.9 12 Oeste 23 Oeste 0 -- -- 96
2020-01-18 22:00:00 10.5 15 Oeste 27 Sudoeste 0 -- -- 98
2020-01-18 21:00:00 10.4 14 Sudoeste 27 Sudoeste 0.2 -- -- 97
2020-01-18 20:00:00 10.6 13 Sudoeste 28 Oeste 0.2 -- -- 97
2020-01-18 19:00:00 10.2 7 Oeste 16 Sudoeste 0.8 -- -- 97
2020-01-18 18:00:00 9.7 4 Sudoeste 8 Sudoeste 0.8 -- -- 97
2020-01-18 17:00:00 9.6 5 Sudoeste 9 Sur 1.2 -- -- 97
2020-01-18 16:00:00 9.4 3 Sudoeste 9 Sudoeste 1.6 -- -- 96
2020-01-18 15:00:00 9 3 Sudoeste 12 Sur 1 -- -- 96
2020-01-18 14:00:00 8.9 3 Sur 12 Sur 1.4 -- -- 95
2020-01-18 13:00:00 8.8 6 Sur 12 Sur 0 -- -- 96
2020-01-18 12:00:00 7.6 0 Calma 13 Este 0.4 -- -- 96
2020-01-18 11:00:00 7.5 7 Este 18 Este 0.4 -- -- 96
2020-01-18 10:00:00 8 2 Sudeste 6 Sudeste 1.2 -- -- 97
2020-01-18 09:00:00 7.8 2 Nordeste 4 Este 1.4 -- -- 96
2020-01-18 08:00:00 7.7 3 Nordeste 5 Nordeste 0 -- -- 94
2020-01-18 07:00:00 7.8 0 Calma 5 Sudoeste 0 -- -- 94
2020-01-18 06:00:00 7.6 5 Sudeste 12 Este 0 -- -- 94
2020-01-18 05:00:00 6.8 0 Calma 4 Este 0 -- -- 95
2020-01-18 04:00:00 6.7 0 Calma 4 Este 0 -- -- 94
2020-01-18 03:00:00 6.8 0 Calma 5 Nordeste 0 -- -- 94
2020-01-18 02:00:00 6.1 0 Calma 4 Nordeste 0 -- -- 94
2020-01-18 01:00:00 5.9 0 Calma 7 Nordeste 0 -- -- 93
2020-01-18 00:00:00 6.1 3 Nordeste 5 Nordeste 0 -- -- 93
2020-01-17 23:00:00 6.1 0 Calma 4 Sudoeste 0 -- -- 92
2020-01-17 22:00:00 7 5 Nordeste 6 Nordeste 0 -- -- 91
2020-01-17 21:00:00 7.3 0 Calma 6 Nordeste 0 -- -- 88
2020-01-17 20:00:00 8.1 0 Calma 4 Nordeste 0 -- -- 89
2020-01-17 19:00:00 9.9 3 Nordeste 9 Sur 0 -- -- 82
2020-01-17 18:00:00 12.9 2 Nordeste 9 Sudoeste 0 -- -- 72
2020-01-17 17:00:00 13.9 4 Sur 10 Sur 0 -- -- 68
2020-01-17 16:00:00 14.4 4 Sur 12 Sur 0 -- -- 65
2020-01-17 15:00:00 14.3 4 Sudeste 11 Este 0 -- -- 66
2020-01-17 14:00:00 13.5 6 Este 12 Nordeste 0 -- -- 68
2020-01-17 13:00:00 13.7 6 Este 15 Este 0 -- -- 67
2020-01-17 12:00:00 12.2 6 Este 11 Nordeste 0 -- -- 73
2020-01-17 11:00:00 11.3 4 Sudoeste 8 Sudoeste 0 -- -- 80
2020-01-17 10:00:00 8.7 0 Calma 5 Este 0 -- -- 82
2020-01-17 09:00:00 8 0 Calma 7 Este 0 -- -- 84
2020-01-17 08:00:00 8 0 Calma 9 Sudeste 0 -- -- 82
2020-01-17 07:00:00 7.8 5 Este 10 Este 0 -- -- 81
2020-01-17 06:00:00 8.7 2 Norte 17 Sudoeste 0 -- -- 80
2020-01-17 05:00:00 9.5 8 Oeste 19 Sudoeste 0 -- -- 87
2020-01-17 04:00:00 9.1 6 Sudoeste 18 Sudoeste 0 -- -- 88
2020-01-17 03:00:00 8.8 6 Sudoeste 16 Sudoeste 0 -- -- 85
2020-01-17 02:00:00 8.6 9 Sudoeste 15 Sudoeste 0 -- -- 81
2020-01-17 01:00:00 8.6 7 Sudoeste 15 Sudoeste 0 -- -- 68
2020-01-17 00:00:00 7.1 7 Sudoeste 13 Sudoeste 0 -- -- 73
2020-01-16 23:00:00 6.4 3 Sudoeste 5 Sudoeste 0 -- -- 74
2020-01-16 22:00:00 7 0 Calma 10 Oeste 0 -- -- 71
2020-01-16 21:00:00 5.8 4 Oeste 6 Oeste 0 -- -- 72
2020-01-16 20:00:00 6.6 0 Calma 5 Nordeste 0 -- -- 72
2020-01-16 19:00:00 9.9 0 Calma 16 Sudoeste 0 -- -- 54
2020-01-16 18:00:00 13.1 8 Sudoeste 23 Sudoeste 0 -- -- 42
2020-01-16 17:00:00 15.4 10 Sudoeste 22 Sudoeste 0 -- -- 36
2020-01-16 16:00:00 16.3 11 Sudoeste 23 Sudoeste 0 -- -- 37
2020-01-16 15:00:00 16 13 Sudoeste 28 Sudoeste 0 -- -- 39
2020-01-16 14:00:00 15.1 4 Sudeste 13 Sudoeste 0 -- -- 44
2020-01-16 13:00:00 13.6 4 Este 11 Este 0 -- -- 49
2020-01-16 12:00:00 11.8 4 Este 14 Este 0 -- -- 56
2020-01-16 11:00:00 10.4 2 Este 7 Sudeste 0 -- -- 63
2020-01-16 10:00:00 5.7 0 Calma 4 Sudeste 0 -- -- 96
2020-01-16 09:00:00 2.7 0 Calma 5 Nordeste 0 -- -- 96
2020-01-16 08:00:00 2.6 3 Nordeste 6 Nordeste 0 -- -- 95
2020-01-16 07:00:00 3.2 3 Nordeste 5 Este 0 -- -- 95
2020-01-16 06:00:00 3.4 2 Nordeste 5 Nordeste 0 -- -- 94
2020-01-16 05:00:00 4.5 2 Nordeste 6 Nordeste 0 -- -- 94
2020-01-16 04:00:00 5.8 0 Calma 3 Nordeste 0 -- -- 94
2020-01-16 03:00:00 6.7 0 Calma 3 Noroeste 0 -- -- 94
2020-01-16 02:00:00 7.4 0 Calma 2 Norte 0 -- -- 94
2020-01-16 01:00:00 7.7 0 Calma 3 Norte 0 -- -- 93
2020-01-16 00:00:00 7.7 0 Calma 4 Nordeste 0 -- -- 94
2020-01-15 23:00:00 7.4 3 Este 6 Sudeste 0 -- -- 95
2020-01-15 22:00:00 6.4 0 Calma 6 Nordeste 0 -- -- 94
2020-01-15 21:00:00 6.7 3 Nordeste 4 Nordeste 0 -- -- 92
2020-01-15 20:00:00 7.5 0 Calma 5 Nordeste 0 -- -- 90
2020-01-15 19:00:00 9.3 0 Calma 3 Norte 0 -- -- 84
2020-01-15 18:00:00 11.5 2 Sudoeste 15 Sudoeste 0 -- -- 77
2020-01-15 17:00:00 12.5 7 Sudoeste 21 Sudoeste 0 -- -- 70
2020-01-15 16:00:00 14.2 12 Sudoeste 20 Sur 0 -- -- 63
2020-01-15 15:00:00 13.1 8 Sudoeste 26 Sudoeste 0 -- -- 65
2020-01-15 14:00:00 13.7 12 Sudoeste 22 Sur 0 -- -- 58
2020-01-15 13:00:00 11.2 6 Este 13 Este 0 -- -- 61
2020-01-15 12:00:00 9.4 5 Este 13 Este 0 -- -- 66
2020-01-15 11:00:00 7.6 4 Este 11 Este 0 -- -- 75
2020-01-15 10:00:00 3.4 0 Calma 5 Nordeste 0 -- -- 98
2020-01-15 09:00:00 0.9 0 Calma 6 Nordeste 0 -- -- 96
2020-01-15 08:00:00 0.8 0 Calma 4 Nordeste 0 -- -- 96
2020-01-15 07:00:00 1.1 0 Calma 4 Nordeste 0 -- -- 96
2020-01-15 06:00:00 1.1 0 Calma 4 Nordeste 0 -- -- 95
2020-01-15 05:00:00 1.6 0 Calma 6 Nordeste 0 -- -- 95
2020-01-15 04:00:00 2 2 Nordeste 5 Nordeste 0 -- -- 95
2020-01-15 03:00:00 2.4 2 Nordeste 5 Nordeste 0 -- -- 95
2020-01-15 02:00:00 2.8 2 Nordeste 4 Nordeste 0 -- -- 93
2020-01-15 01:00:00 3.4 0 Calma 3 Nordeste 0 -- -- 92
2020-01-15 00:00:00 3.8 3 Nordeste 4 Nordeste 0 -- -- 92
2020-01-14 23:00:00 4.4 0 Calma 8 Oeste 0 -- -- 89
2020-01-14 22:00:00 4.7 4 Oeste 6 Oeste 0 -- -- 87
2020-01-14 21:00:00 5.8 0 Calma 6 Oeste 0 -- -- 83
2020-01-14 20:00:00 6.5 4 Oeste 8 Sudoeste 0 -- -- 79
2020-01-14 19:00:00 7.4 3 Oeste 7 Sudoeste 0 -- -- 75
2020-01-14 18:00:00 8.9 5 Sudoeste 18 Sudoeste 0 -- -- 67
2020-01-14 17:00:00 10.6 8 Sudoeste 15 Sur 0 -- -- 62
2020-01-14 16:00:00 11.2 8 Sudoeste 18 Sudoeste 0 -- -- 60
2020-01-14 15:00:00 11.4 9 Sur 22 Sur 0 -- -- 61
2020-01-14 14:00:00 11.1 10 Sudoeste 20 Sudoeste 0 -- -- 58
2020-01-14 13:00:00 10.5 7 Sudoeste 13 Oeste 0 -- -- 65
2020-01-14 12:00:00 7.5 3 Nordeste 5 Este 0 -- -- 77
2020-01-14 11:00:00 5.4 2 Sur 5 Este 0 -- -- 90
2020-01-14 10:00:00 3.5 0 Calma 5 Nordeste 0 -- -- 98
2020-01-14 09:00:00 2.3 3 Nordeste 5 Nordeste 0 -- -- 96
2020-01-14 08:00:00 3.4 0 Calma 4 Nordeste 0 -- -- 97
2020-01-14 07:00:00 3 0 Calma 4 Nordeste 0 -- -- 97
2020-01-14 06:00:00 2.2 0 Calma 4 Nordeste 0 -- -- 97
2020-01-14 05:00:00 1.3 3 Nordeste 7 Nordeste 0 -- -- 96
2020-01-14 04:00:00 0.9 0 Calma 4 Nordeste 0 -- -- 96
2020-01-14 03:00:00 1.1 2 Nordeste 8 Nordeste 0 -- -- 96
2020-01-14 02:00:00 1.7 3 Nordeste 9 Nordeste 0 -- -- 95
2020-01-14 01:00:00 1.5 0 Calma 6 Nordeste 0 -- -- 95
2020-01-14 00:00:00 2 4 Nordeste 6 Nordeste 0 -- -- 94
2020-01-13 23:00:00 3 0 Calma 5 Nordeste 0 -- -- 92
2020-01-13 22:00:00 4.5 0 Calma 5 Oeste 0 -- -- 91
2020-01-13 21:00:00 5.4 4 Sudoeste 6 Oeste 0 -- -- 86
2020-01-13 20:00:00 5.9 0 Calma 3 Oeste 0 -- -- 82
2020-01-13 19:00:00 7.3 0 Calma 6 Sudoeste 0 -- -- 75
2020-01-13 18:00:00 10.3 4 Sudoeste 16 Sudoeste 0 -- -- 62
2020-01-13 17:00:00 12.2 10 Sudoeste 19 Sudoeste 0 -- -- 52
2020-01-13 16:00:00 12.4 6 Sudoeste 19 Sudoeste 0 -- -- 54
2020-01-13 15:00:00 11.2 7 Nordeste 13 Este 0 -- -- 61
2020-01-13 14:00:00 10.8 6 Nordeste 12 Este 0 -- -- 65
2020-01-13 13:00:00 10 6 Nordeste 11 Este 0 -- -- 61
2020-01-13 12:00:00 9.2 3 Este 8 Este 0 -- -- 60
2020-01-13 11:00:00 6.9 2 Este 6 Sudeste 0 -- -- 69
2020-01-13 10:00:00 2.6 0 Calma 5 Nordeste 0 -- -- 97
2020-01-13 09:00:00 0.1 2 Nordeste 4 Nordeste 0 -- -- 96
2020-01-13 08:00:00 0 2 Norte 3 Nordeste 0 -- -- 95
2020-01-13 07:00:00 0.1 0 Calma 4 Nordeste 0 -- -- 95
2020-01-13 06:00:00 0.2 3 Nordeste 4 Nordeste 0 -- -- 94
2020-01-13 05:00:00 0.8 0 Calma 5 Nordeste 0 -- -- 94
2020-01-13 04:00:00 1.7 4 Nordeste 7 Nordeste 0 -- -- 91
2020-01-13 03:00:00 1.8 3 Este 8 Este 0 -- -- 91
2020-01-13 02:00:00 2.2 4 Este 9 Este 0 -- -- 89
2020-01-13 01:00:00 2.4 4 Nordeste 7 Este 0 -- -- 89
2020-01-13 00:00:00 2.5 2 Este 5 Este 0 -- -- 90
2020-01-12 23:00:00 3.2 4 Este 9 Nordeste 0 -- -- 88
2020-01-12 22:00:00 3 0 Calma 5 Nordeste 0 -- -- 90
2020-01-12 21:00:00 3.8 3 Nordeste 6 Nordeste 0 -- -- 88
2020-01-12 20:00:00 4.7 4 Nordeste 6 Nordeste 0 -- -- 85
2020-01-12 19:00:00 7.3 3 Norte 5 Noroeste 0 -- -- 75
2020-01-12 18:00:00 11.3 3 Sudoeste 8 Sur 0 -- -- 57
2020-01-12 17:00:00 13.8 3 Sur 10 Este 0 -- -- 46
2020-01-12 16:00:00 13.6 5 Este 12 Este 0 -- -- 46
2020-01-12 15:00:00 13.7 3 Sudeste 10 Sur 0 -- -- 48
2020-01-12 14:00:00 12.8 5 Este 15 Este 0 -- -- 54
2020-01-12 13:00:00 11.7 3 Este 9 Este 0 -- -- 57
2020-01-12 12:00:00 10.1 4 Este 8 Este 0 -- -- 61
2020-01-12 11:00:00 8.4 3 Sudeste 7 Sudeste 0 -- -- 68
2020-01-12 10:00:00 3.4 4 Nordeste 8 Nordeste 0 -- -- 92
2020-01-12 09:00:00 0.8 4 Este 6 Nordeste 0 -- -- 94
2020-01-12 08:00:00 1.1 3 Nordeste 7 Nordeste 0 -- -- 94
2020-01-12 07:00:00 1.1 4 Nordeste 6 Nordeste 0 -- -- 94
2020-01-12 06:00:00 1.2 3 Nordeste 6 Nordeste 0 -- -- 94
2020-01-12 05:00:00 1.6 3 Nordeste 8 Nordeste 0 -- -- 93
2020-01-12 04:00:00 2 4 Nordeste 6 Nordeste 0 -- -- 93
2020-01-12 03:00:00 2.3 4 Nordeste 9 Este 0 -- -- 92
2020-01-12 02:00:00 2.9 5 Este 8 Este 0 -- -- 90
2020-01-12 01:00:00 3.1 4 Este 6 Este 0 -- -- 88
2020-01-12 00:00:00 3.7 4 Nordeste 9 Nordeste 0 -- -- 85
2020-01-11 23:00:00 4.3 4 Nordeste 7 Este 0 -- -- 83
2020-01-11 22:00:00 4.5 6 Nordeste 8 Nordeste 0 -- -- 83
2020-01-11 21:00:00 4.4 5 Este 7 Este 0 -- -- 83
2020-01-11 20:00:00 5.1 4 Nordeste 7 Nordeste 0 -- -- 82
2020-01-11 19:00:00 7.7 2 Norte 4 Sur 0 -- -- 75
2020-01-11 18:00:00 12.1 2 Sudoeste 8 Este 0 -- -- 54
2020-01-11 17:00:00 14 3 Este 14 Sudeste 0 -- -- 45
2020-01-11 16:00:00 14.1 4 Nordeste 13 Nordeste 0 -- -- 43
2020-01-11 15:00:00 13.6 5 Nordeste 20 Este 0 -- -- 46
2020-01-11 14:00:00 12.6 6 Nordeste 16 Nordeste 0 -- -- 46
2020-01-11 13:00:00 11.3 10 Este 21 Este 0 -- -- 49
2020-01-11 12:00:00 10.6 7 Nordeste 17 Nordeste 0 -- -- 51
2020-01-11 11:00:00 9 7 Nordeste 16 Nordeste 0 -- -- 55
2020-01-11 10:00:00 6.6 8 Nordeste 19 Norte 0 -- -- 65
2020-01-11 09:00:00 3.4 8 Nordeste 17 Nordeste 0 -- -- 76
2020-01-11 08:00:00 3.1 9 Nordeste 15 Norte 0 -- -- 78
2020-01-11 07:00:00 4.1 8 Norte 18 Nordeste 0 -- -- 71
2020-01-11 06:00:00 3.2 11 Nordeste 16 Norte 0 -- -- 79
2020-01-11 05:00:00 3.5 6 Nordeste 15 Nordeste 0 -- -- 76
2020-01-11 04:00:00 4.4 6 Norte 16 Norte 0 -- -- 70
2020-01-11 03:00:00 5.4 9 Nordeste 20 Nordeste 0 -- -- 65
2020-01-11 02:00:00 6.9 11 Nordeste 20 Nordeste 0 -- -- 63
2020-01-11 01:00:00 7.6 12 Nordeste 23 Norte 0 -- -- 60
2020-01-11 00:00:00 8.3 14 Nordeste 27 Nordeste 0 -- -- 54
2020-01-10 23:00:00 8.7 17 Nordeste 30 Nordeste 0 -- -- 53
2020-01-10 22:00:00 8.7 14 Nordeste 26 Nordeste 0 -- -- 54
2020-01-10 21:00:00 8.6 13 Nordeste 26 Nordeste 0 -- -- 55
2020-01-10 20:00:00 8.8 12 Nordeste 24 Nordeste 0 -- -- 53
2020-01-10 19:00:00 9.5 13 Nordeste 27 Nordeste 0 -- -- 49
2020-01-10 18:00:00 10.6 11 Nordeste 31 Nordeste 0 -- -- 49
2020-01-10 17:00:00 12.3 14 Nordeste 28 Nordeste 0 -- -- 47
2020-01-10 16:00:00 12.6 15 Nordeste 26 Norte 0 -- -- 52
2020-01-10 15:00:00 12.3 8 Nordeste 22 Nordeste 0 -- -- 59
2020-01-10 14:00:00 11.5 8 Nordeste 24 Nordeste 0 -- -- 71
2020-01-10 13:00:00 12.3 7 Nordeste 20 Nordeste 0 -- -- 71
2020-01-10 12:00:00 10.5 11 Nordeste 24 Norte 0 -- -- 77
2020-01-10 11:00:00 9.7 12 Norte 22 Norte 0 -- -- 79
2020-01-10 10:00:00 8 5 Norte 13 Norte 0 -- -- 88
2020-01-10 09:00:00 7.8 7 Norte 18 Norte 0 -- -- 90
2020-01-10 08:00:00 7.5 2 Nordeste 5 Este 0 -- -- 94
2020-01-10 07:00:00 7.7 2 Nordeste 13 Noroeste 0 -- -- 94
2020-01-10 06:00:00 7.3 3 Norte 15 Noroeste 0 -- -- 94
2020-01-10 05:00:00 8.1 3 Norte 16 Noroeste 0 -- -- 93
2020-01-10 04:00:00 8.1 5 Norte 16 Norte 0 -- -- 94
2020-01-10 03:00:00 6.7 3 Oeste 9 Noroeste 0 -- -- 96
2020-01-10 02:00:00 4.9 3 Sudoeste 9 Oeste 0 -- -- 95
2020-01-10 01:00:00 4.9 0 Calma 6 Sudeste 0 -- -- 93
2020-01-10 00:00:00 5.6 2 Nordeste 5 Nordeste 0 -- -- 93
2020-01-09 23:00:00 6 2 Sudoeste 10 Oeste 0 -- -- 93
2020-01-09 22:00:00 6.2 0 Calma 6 Oeste 0 -- -- 93
2020-01-09 21:00:00 6.9 6 Oeste 11 Oeste 0 -- -- 91
2020-01-09 20:00:00 7.1 5 Oeste 8 Sudoeste 0 -- -- 89
2020-01-09 19:00:00 8.2 7 Sudoeste 18 Sudoeste 0 -- -- 85
2020-01-09 18:00:00 10.8 10 Sudoeste 17 Sudoeste 0 -- -- 76
2020-01-09 17:00:00 13 8 Sur 14 Sur 0 -- -- 67
2020-01-09 16:00:00 13.5 6 Este 15 Sudoeste 0 -- -- 64
2020-01-09 15:00:00 14.3 6 Sudoeste 18 Sudoeste 0 -- -- 61
2020-01-09 14:00:00 12.9 6 Este 17 Este 0 -- -- 66
2020-01-09 13:00:00 12.5 7 Sudoeste 16 Sur 0 -- -- 65
2020-01-09 12:00:00 10.9 9 Sudoeste 14 Sudoeste 0 -- -- 73
2020-01-09 11:00:00 8.2 0 Calma 3 Oeste 0 -- -- 89
2020-01-09 10:00:00 4 2 Nordeste 7 Nordeste 0 -- -- 98
2020-01-09 09:00:00 1.4 2 Nordeste 4 Nordeste 0 -- -- 96
2020-01-09 08:00:00 1.7 0 Calma 5 Nordeste 0 -- -- 96
2020-01-09 07:00:00 2 2 Norte 3 Norte 0 -- -- 95
2020-01-09 06:00:00 2.5 0 Calma 4 Nordeste 0 -- -- 95
2020-01-09 05:00:00 2.2 2 Norte 3 Norte 0 -- -- 94
2020-01-09 04:00:00 2.4 0 Calma 4 Nordeste 0 -- -- 94
2020-01-09 03:00:00 2.8 2 Nordeste 6 Nordeste 0 -- -- 93
2020-01-09 02:00:00 3.2 3 Norte 5 Este 0 -- -- 92
2020-01-09 01:00:00 4.2 0 Calma 6 Nordeste 0 -- -- 87
2020-01-09 00:00:00 4.2 4 Nordeste 6 Nordeste 0 -- -- 88
2020-01-08 23:00:00 4.5 0 Calma 5 Nordeste 0 -- -- 88
2020-01-08 22:00:00 5.3 0 Calma 5 Nordeste 0 -- -- 87
2020-01-08 21:00:00 5.9 0 Calma 8 Nordeste 0 -- -- 84
2020-01-08 20:00:00 7.1 3 Nordeste 10 Nordeste 0 -- -- 78
2020-01-08 19:00:00 9.2 3 Nordeste 7 Este 0 -- -- 76
2020-01-08 18:00:00 14.4 3 Este 5 Este 0 -- -- 56
2020-01-08 17:00:00 18.3 0 Calma 5 Este 0 -- -- 36
2020-01-08 16:00:00 18.2 4 Este 10 Sudeste 0 -- -- 37
2020-01-08 15:00:00 18.6 3 Sudoeste 8 Sudoeste 0 -- -- 32
2020-01-08 14:00:00 16.9 3 Este 7 Este 0 -- -- 34
2020-01-08 13:00:00 15.6 3 Sudeste 12 Este 0 -- -- 35
2020-01-08 12:00:00 14.8 4 Este 10 Este 0 -- -- 40
2020-01-08 11:00:00 11.9 3 Nordeste 6 Nordeste 0 -- -- 54
2020-01-08 10:00:00 5.8 4 Nordeste 9 Nordeste 0 -- -- 82
2020-01-08 09:00:00 3.4 6 Nordeste 9 Este 0 -- -- 89
2020-01-08 08:00:00 3 4 Este 8 Este 0 -- -- 90
2020-01-08 07:00:00 3.5 5 Nordeste 13 Este 0 -- -- 89
2020-01-08 06:00:00 3.6 6 Nordeste 10 Nordeste 0 -- -- 88
2020-01-08 05:00:00 4.4 7 Nordeste 9 Este 0 -- -- 84
2020-01-08 04:00:00 5.3 5 Nordeste 8 Nordeste 0 -- -- 81
2020-01-08 03:00:00 5.1 4 Nordeste 8 Nordeste 0 -- -- 82
2020-01-08 02:00:00 4.7 6 Nordeste 10 Nordeste 0 -- -- 83
2020-01-08 01:00:00 5.3 5 Este 8 Nordeste 0 -- -- 81
2020-01-08 00:00:00 6 5 Nordeste 7 Nordeste 0 -- -- 78
2020-01-07 23:00:00 5.7 5 Nordeste 9 Este 0 -- -- 81
2020-01-07 22:00:00 6.6 2 Norte 8 Oeste 0 -- -- 80
2020-01-07 21:00:00 6.5 3 Nordeste 7 Este 0 -- -- 84
2020-01-07 20:00:00 6.7 2 Norte 4 Nordeste 0 -- -- 85
2020-01-07 19:00:00 9.1 3 Nordeste 6 Nordeste 0 -- -- 77
2020-01-07 18:00:00 13.3 2 Este 10 Este 0 -- -- 62
2020-01-07 17:00:00 16.2 5 Este 9 Este 0 -- -- 52
2020-01-07 16:00:00 16.9 5 Este 9 Este 0 -- -- 47
2020-01-07 15:00:00 16.8 4 Sudeste 12 Este 0 -- -- 42
2020-01-07 14:00:00 15.9 6 Nordeste 10 Nordeste 0 -- -- 45
2020-01-07 13:00:00 14.6 4 Este 10 Este 0 -- -- 58
2020-01-07 12:00:00 13.4 3 Nordeste 7 Norte 0 -- -- 60
2020-01-07 11:00:00 10.5 3 Nordeste 8 Este 0 -- -- 72
2020-01-07 10:00:00 5.2 4 Este 10 Nordeste 0 -- -- 93
2020-01-07 09:00:00 2.7 5 Este 12 Este 0 -- -- 94
2020-01-07 08:00:00 3.2 3 Nordeste 9 Este 0 -- -- 94
2020-01-07 07:00:00 2.9 4 Este 6 Este 0 -- -- 95
2020-01-07 06:00:00 3.4 0 Calma 8 Nordeste 0 -- -- 93
2020-01-07 05:00:00 3.4 5 Nordeste 8 Nordeste 0 -- -- 93
2020-01-07 04:00:00 3.8 6 Nordeste 9 Nordeste 0 -- -- 93
2020-01-07 03:00:00 4.5 4 Nordeste 8 Nordeste 0 -- -- 91
2020-01-07 02:00:00 4.9 3 Nordeste 9 Nordeste 0 -- -- 91
2020-01-07 01:00:00 5.2 6 Nordeste 12 Norte 0 -- -- 92
2020-01-07 00:00:00 4.9 5 Nordeste 9 Nordeste 0 -- -- 95
2020-01-06 23:00:00 4.6 3 Nordeste 8 Norte 0 -- -- 95
2020-01-06 22:00:00 4.7 3 Nordeste 7 Nordeste 0 -- -- 94
2020-01-06 21:00:00 5 4 Nordeste 5 Nordeste 0 -- -- 93
2020-01-06 20:00:00 5.8 3 Nordeste 5 Nordeste 0 -- -- 91
2020-01-06 19:00:00 7.5 0 Calma 5 Este 0 -- -- 86
2020-01-06 18:00:00 10.8 3 Este 8 Este 0 -- -- 74
2020-01-06 17:00:00 13.1 4 Este 10 Este 0 -- -- 67
2020-01-06 16:00:00 14.2 4 Este 9 Este 0 -- -- 62
2020-01-06 15:00:00 13.9 5 Este 13 Este 0 -- -- 63
2020-01-06 14:00:00 13 5 Este 13 Este 0 -- -- 66
2020-01-06 13:00:00 12.7 4 Este 10 Sudeste 0 -- -- 68
2020-01-06 12:00:00 10.9 3 Nordeste 5 Nordeste 0 -- -- 71
2020-01-06 11:00:00 8.5 0 Calma 4 Nordeste 0.2 -- -- 86
2020-01-06 10:00:00 4.8 3 Nordeste 6 Nordeste 0 -- -- 98